createdAt,value
2019-02-04T00:00:44.076Z,87.20
2019-02-04T00:02:00.562Z,87.20
2019-02-04T00:03:17.901Z,87.10
2019-02-04T00:04:35.082Z,87.50
2019-02-04T00:05:51.709Z,87.60
2019-02-04T00:07:08.159Z,87.70
2019-02-04T00:08:25.489Z,87.60
2019-02-04T00:09:45.753Z,87.60
2019-02-04T00:11:02.685Z,87.50
2019-02-04T00:12:19.417Z,87.70
2019-02-04T00:13:35.976Z,87.80
2019-02-04T00:14:53.360Z,87.70
2019-02-04T00:16:09.852Z,87.70
2019-02-04T00:17:27.690Z,87.60
2019-02-04T00:18:44.480Z,87.50
2019-02-04T00:20:01.177Z,87.40
2019-02-04T00:21:17.745Z,87.50
2019-02-04T00:22:34.265Z,87.60
2019-02-04T00:23:50.557Z,87.70
2019-02-04T00:25:06.941Z,87.70
2019-02-04T00:26:24.184Z,87.60
2019-02-04T00:27:41.408Z,87.80
2019-02-04T00:28:58.337Z,87.80
2019-02-04T00:30:14.888Z,88.00
2019-02-04T00:31:31.425Z,87.90
2019-02-04T00:32:48.525Z,88.10
2019-02-04T00:34:04.978Z,88.10
2019-02-04T00:35:21.707Z,88.00
2019-02-04T00:36:38.201Z,87.90
2019-02-04T00:37:54.432Z,88.10
2019-02-04T00:39:10.897Z,88.20
2019-02-04T00:40:28.053Z,88.20
2019-02-04T00:41:44.557Z,88.50
2019-02-04T00:43:01.420Z,88.40
2019-02-04T00:44:18.646Z,88.60
2019-02-04T00:45:35.504Z,88.50
2019-02-04T00:46:52.765Z,88.40
2019-02-04T00:48:09.132Z,88.60
2019-02-04T00:49:25.645Z,88.90
2019-02-04T00:50:42.344Z,89.10
2019-02-04T00:51:58.722Z,89.20
2019-02-04T00:53:15.241Z,89.40
2019-02-04T00:54:32.452Z,89.30
2019-02-04T00:55:49.562Z,89.10
2019-02-04T00:57:05.924Z,88.80
2019-02-04T00:58:23.070Z,88.60
2019-02-04T00:59:38.362Z,88.60
2019-02-04T01:01:02.519Z,88.50
2019-02-04T01:02:19.181Z,88.30
2019-02-04T01:03:35.693Z,88.20
2019-02-04T01:04:52.016Z,88.20
2019-02-04T01:06:08.645Z,88.40
2019-02-04T01:07:25.121Z,88.60
2019-02-04T01:08:41.622Z,88.50
2019-02-04T01:09:58.308Z,88.60
2019-02-04T01:11:14.669Z,88.50
2019-02-04T01:12:31.521Z,88.30
2019-02-04T01:13:49.129Z,88.30
2019-02-04T01:15:05.948Z,88.50
2019-02-04T01:16:22.402Z,88.70
2019-02-04T01:17:38.807Z,88.70
2019-02-04T01:18:55.314Z,88.70
2019-02-04T01:20:12.203Z,88.70
2019-02-04T01:21:29.256Z,88.80
2019-02-04T01:22:45.547Z,88.90
2019-02-04T01:24:02.612Z,88.90
2019-02-04T01:25:19.116Z,89.00
2019-02-04T01:26:34.255Z,88.90
2019-02-04T01:27:50.780Z,88.70
2019-02-04T01:29:07.445Z,88.70
2019-02-04T01:30:23.767Z,88.70
2019-02-04T01:31:40.257Z,88.60
2019-02-04T01:32:57.037Z,88.60
2019-02-04T01:34:13.929Z,88.70
2019-02-04T01:35:30.533Z,88.70
2019-02-04T01:36:47.297Z,89.00
2019-02-04T01:38:04.775Z,89.10
2019-02-04T01:39:21.269Z,89.10
2019-02-04T01:40:38.416Z,89.20
2019-02-04T01:41:55.427Z,89.30
2019-02-04T01:43:12.160Z,89.30
2019-02-04T01:44:28.920Z,89.40
2019-02-04T01:45:46.309Z,89.50
2019-02-04T01:47:02.891Z,89.40
2019-02-04T01:48:19.965Z,89.40
2019-02-04T01:49:36.611Z,89.30
2019-02-04T01:50:53.227Z,89.20
2019-02-04T01:52:09.700Z,89.30
2019-02-04T01:53:26.648Z,89.30
2019-02-04T01:54:43.848Z,89.10
2019-02-04T01:56:00.516Z,88.80
2019-02-04T01:57:17.192Z,88.70
2019-02-04T01:58:33.601Z,88.70
2019-02-04T01:59:50.788Z,88.60
2019-02-04T02:01:07.463Z,88.50
2019-02-04T02:02:24.492Z,88.60
2019-02-04T02:03:41.054Z,88.60
2019-02-04T02:04:58.300Z,88.70
2019-02-04T02:06:17.273Z,88.90
2019-02-04T02:07:33.570Z,88.80
2019-02-04T02:08:50.281Z,88.80
2019-02-04T02:10:06.914Z,88.80
2019-02-04T02:11:23.819Z,88.70
2019-02-04T02:12:40.382Z,88.80
2019-02-04T02:13:56.626Z,89.00
2019-02-04T02:15:13.185Z,89.00
2019-02-04T02:16:29.669Z,89.10
2019-02-04T02:17:46.264Z,89.20
2019-02-04T02:19:02.768Z,90.00
2019-02-04T02:20:19.498Z,90.40
2019-02-04T02:21:35.909Z,90.60
2019-02-04T02:22:52.614Z,90.70
2019-02-04T02:24:09.156Z,90.90
2019-02-04T02:25:26.374Z,90.90
2019-02-04T02:26:43.064Z,90.80
2019-02-04T02:28:00.908Z,90.60
2019-02-04T02:29:17.413Z,90.50
2019-02-04T02:30:33.903Z,90.40
2019-02-04T02:31:49.077Z,90.30
2019-02-04T02:33:13.173Z,90.40
2019-02-04T02:34:29.549Z,90.40
2019-02-04T02:35:45.937Z,90.20
2019-02-04T02:37:02.540Z,90.20
2019-02-04T02:38:19.654Z,90.10
2019-02-04T02:39:36.101Z,90.30
2019-02-04T02:40:51.386Z,90.30
2019-02-04T02:42:15.463Z,90.40
2019-02-04T02:43:31.960Z,90.40
2019-02-04T02:44:49.137Z,90.40
2019-02-04T02:46:06.179Z,90.40
2019-02-04T02:47:22.753Z,90.50
2019-02-04T02:48:41.378Z,90.70
2019-02-04T02:49:57.812Z,90.90
2019-02-04T02:51:14.958Z,91.00
2019-02-04T02:52:31.397Z,91.00
2019-02-04T02:53:48.117Z,91.20
2019-02-04T02:55:04.699Z,91.30
2019-02-04T02:56:21.090Z,91.40
2019-02-04T02:57:37.505Z,91.40
2019-02-04T02:58:54.040Z,91.30
2019-02-04T03:00:11.370Z,91.40
2019-02-04T03:01:28.527Z,91.40
2019-02-04T03:02:45.710Z,91.40
2019-02-04T03:04:02.023Z,91.50
2019-02-04T03:05:18.473Z,91.50
2019-02-04T03:06:34.972Z,91.50
2019-02-04T03:07:51.601Z,91.60
2019-02-04T03:09:08.492Z,91.70
2019-02-04T03:10:25.037Z,91.90
2019-02-04T03:11:41.689Z,92.20
2019-02-04T03:12:58.880Z,92.10
2019-02-04T03:14:16.038Z,92.20
2019-02-04T03:15:32.468Z,92.60
2019-02-04T03:16:48.853Z,92.80
2019-02-04T03:18:05.115Z,92.90
2019-02-04T03:19:21.529Z,93.00
2019-02-04T03:20:37.783Z,92.90
2019-02-04T03:21:54.650Z,92.80
2019-02-04T03:23:11.166Z,93.10
2019-02-04T03:24:27.946Z,93.20
2019-02-04T03:25:44.336Z,93.20
2019-02-04T03:27:01.041Z,93.30
2019-02-04T03:28:17.609Z,93.30
2019-02-04T03:29:34.087Z,93.40
2019-02-04T03:30:50.718Z,93.50
2019-02-04T03:32:07.850Z,93.70
2019-02-04T03:33:24.840Z,93.70
2019-02-04T03:34:41.189Z,93.90
2019-02-04T03:35:58.149Z,93.80
2019-02-04T03:37:14.419Z,93.80
2019-02-04T03:38:30.981Z,93.80
2019-02-04T03:39:47.950Z,93.80
2019-02-04T03:41:04.378Z,93.80
2019-02-04T03:42:20.955Z,93.80
2019-02-04T03:43:37.564Z,93.70
2019-02-04T03:44:54.758Z,93.80
2019-02-04T03:46:11.526Z,93.80
2019-02-04T03:47:28.331Z,93.80
2019-02-04T03:48:45.362Z,94.00
2019-02-04T03:50:02.609Z,94.00
2019-02-04T03:51:19.633Z,94.10
2019-02-04T03:52:36.412Z,94.10
2019-02-04T03:53:52.788Z,94.10
2019-02-04T03:55:09.176Z,94.10
2019-02-04T03:56:24.381Z,94.20
2019-02-04T03:57:48.453Z,94.30
2019-02-04T03:59:07.130Z,94.30
2019-02-04T04:00:23.905Z,94.30
2019-02-04T04:01:40.540Z,94.30
2019-02-04T04:02:57.634Z,94.60
2019-02-04T04:04:15.141Z,94.60
2019-02-04T04:05:31.458Z,94.50
2019-02-04T04:06:47.935Z,94.50
2019-02-04T04:08:04.858Z,94.50
2019-02-04T04:09:21.457Z,94.60
2019-02-04T04:10:37.719Z,94.70
2019-02-04T04:11:54.409Z,94.70
2019-02-04T04:13:11.572Z,94.70
2019-02-04T04:14:28.085Z,94.70
2019-02-04T04:15:44.794Z,94.80
2019-02-04T04:17:01.812Z,94.90
2019-02-04T04:18:18.220Z,94.90
2019-02-04T04:19:35.281Z,94.90
2019-02-04T04:20:55.389Z,94.80
2019-02-04T04:22:12.573Z,94.80
2019-02-04T04:23:29.276Z,94.90
2019-02-04T04:24:46.473Z,94.80
2019-02-04T04:26:03.241Z,94.50
2019-02-04T04:27:19.722Z,94.50
2019-02-04T04:28:36.597Z,94.60
2019-02-04T04:29:53.203Z,94.80
2019-02-04T04:31:09.778Z,94.80
2019-02-04T04:32:26.177Z,94.80
2019-02-04T04:33:43.085Z,94.90
2019-02-04T04:34:59.692Z,94.90
2019-02-04T04:36:16.988Z,95.00
2019-02-04T04:37:33.611Z,95.00
2019-02-04T04:38:51.033Z,95.10
2019-02-04T04:40:07.435Z,95.10
2019-02-04T04:41:24.461Z,95.10
2019-02-04T04:42:40.932Z,95.10
2019-02-04T04:43:57.796Z,95.10
2019-02-04T04:45:14.248Z,95.30
2019-02-04T04:46:31.365Z,95.30
2019-02-04T04:47:48.452Z,95.30
2019-02-04T04:49:05.121Z,95.30
2019-02-04T04:50:22.271Z,95.30
2019-02-04T04:51:38.753Z,95.40
2019-02-04T04:52:55.225Z,95.30
2019-02-04T04:54:12.468Z,95.30
2019-02-04T04:55:29.120Z,95.30
2019-02-04T04:56:45.492Z,95.40
2019-02-04T04:58:03.288Z,95.40
2019-02-04T04:59:19.801Z,95.40
2019-02-04T05:00:36.213Z,95.10
2019-02-04T05:01:52.464Z,94.90
2019-02-04T05:03:09.117Z,94.80
2019-02-04T05:04:26.387Z,94.70
2019-02-04T05:05:42.800Z,94.70
2019-02-04T05:07:00.662Z,94.70
2019-02-04T05:08:17.688Z,94.80
2019-02-04T05:09:34.266Z,94.80
2019-02-04T05:10:50.625Z,95.20
2019-02-04T05:12:07.854Z,95.60
2019-02-04T05:13:24.580Z,95.70
2019-02-04T05:14:41.002Z,95.90
2019-02-04T05:15:57.456Z,96.10
2019-02-04T05:17:13.887Z,96.20
2019-02-04T05:18:37.732Z,96.10
2019-02-04T05:19:49.350Z,95.80
2019-02-04T05:21:05.646Z,95.80
2019-02-04T05:22:22.125Z,95.90
2019-02-04T05:23:38.760Z,96.00
2019-02-04T05:24:55.068Z,96.00
2019-02-04T05:26:11.662Z,95.90
2019-02-04T05:27:28.890Z,96.10
2019-02-04T05:28:46.119Z,96.30
2019-02-04T05:30:02.938Z,96.30
2019-02-04T05:31:19.332Z,96.70
2019-02-04T05:32:35.912Z,96.80
2019-02-04T05:33:53.176Z,96.90
2019-02-04T05:35:09.604Z,97.10
2019-02-04T05:36:26.874Z,97.20
2019-02-04T05:37:44.001Z,97.10
2019-02-04T05:39:00.521Z,97.00
2019-02-04T05:40:18.198Z,97.00
2019-02-04T05:41:35.145Z,96.80
2019-02-04T05:42:51.630Z,96.70
2019-02-04T05:44:10.864Z,96.60
2019-02-04T05:46:43.194Z,96.60
2019-02-04T05:47:59.606Z,96.50
2019-02-04T05:49:14.881Z,96.40
2019-02-04T05:50:39.050Z,96.40
2019-02-04T05:52:16.901Z,96.40
2019-02-04T05:53:33.385Z,96.50
2019-02-04T05:54:50.630Z,96.50
2019-02-04T05:56:07.222Z,96.60
2019-02-04T05:57:24.590Z,96.60
2019-02-04T05:58:39.742Z,96.50
2019-02-04T06:00:04.981Z,96.30
2019-02-04T06:01:23.742Z,96.30
2019-02-04T06:02:40.314Z,96.30
2019-02-04T06:03:56.718Z,96.20
2019-02-04T06:05:13.356Z,96.20
2019-02-04T06:06:29.786Z,96.20
2019-02-04T06:07:47.293Z,96.20
2019-02-04T06:09:04.760Z,96.30
2019-02-04T06:10:21.501Z,96.40
2019-02-04T06:11:38.080Z,96.30
2019-02-04T06:12:54.663Z,96.30
2019-02-04T06:14:11.343Z,96.40
2019-02-04T06:15:27.765Z,96.30
2019-02-04T06:16:44.357Z,96.40
2019-02-04T06:18:01.137Z,96.40
2019-02-04T06:20:33.107Z,96.20
2019-02-04T06:21:50.428Z,96.10
2019-02-04T06:23:06.924Z,96.00
2019-02-04T06:24:23.467Z,95.90
2019-02-04T06:25:40.994Z,96.00
2019-02-04T06:26:58.053Z,96.10
2019-02-04T06:28:15.258Z,96.20
2019-02-04T06:29:31.828Z,96.20
2019-02-04T06:30:49.193Z,96.30
2019-02-04T06:32:05.621Z,96.30
2019-02-04T06:33:20.871Z,96.40
2019-02-04T06:34:37.462Z,96.50
2019-02-04T06:35:52.732Z,96.50
2019-02-04T06:37:17.001Z,96.40
2019-02-04T06:38:33.686Z,96.20
2019-02-04T06:39:48.922Z,96.20
2019-02-04T06:41:13.053Z,96.20
2019-02-04T06:42:29.684Z,96.00
2019-02-04T06:43:46.039Z,95.60
2019-02-04T06:45:02.660Z,95.20
2019-02-04T06:46:20.082Z,95.00
2019-02-04T06:47:36.460Z,95.00
2019-02-04T06:48:52.825Z,95.10
2019-02-04T06:50:09.482Z,95.30
2019-02-04T06:51:27.996Z,95.40
2019-02-04T06:52:45.063Z,95.40
2019-02-04T06:54:02.346Z,95.40
2019-02-04T06:55:18.817Z,95.70
2019-02-04T06:56:36.057Z,96.10
2019-02-04T06:57:53.298Z,96.80
2019-02-04T06:59:10.062Z,97.10
2019-02-04T07:00:27.453Z,97.30
2019-02-04T07:01:43.867Z,97.50
2019-02-04T07:03:00.630Z,97.90
2019-02-04T07:04:18.115Z,98.30
2019-02-04T07:05:43.445Z,98.60
2019-02-04T07:06:53.087Z,98.90
2019-02-04T07:08:09.634Z,99.20
2019-02-04T07:09:26.020Z,99.30
2019-02-04T07:10:42.464Z,99.30
2019-02-04T07:11:58.927Z,99.30
2019-02-04T07:13:15.747Z,99.30
2019-02-04T07:14:32.261Z,99.10
2019-02-04T07:15:48.647Z,98.80
2019-02-04T07:17:05.452Z,98.30
2019-02-04T07:18:22.874Z,97.90
2019-02-04T07:19:40.093Z,97.40
2019-02-04T07:22:13.931Z,97.00
2019-02-04T07:23:31.146Z,97.50
2019-02-04T07:24:48.530Z,97.70
2019-02-04T07:26:04.893Z,98.00
2019-02-04T07:27:22.694Z,99.40
2019-02-04T07:28:27.967Z,99.10
2019-02-04T07:29:33.140Z,99.20
2019-02-04T07:30:38.252Z,97.80
2019-02-04T07:31:43.297Z,95.40
2019-02-04T07:32:48.805Z,94.20
2019-02-04T07:33:53.839Z,92.70
2019-02-04T07:34:59.058Z,91.40
2019-02-04T07:36:04.578Z,90.30
2019-02-04T07:37:09.709Z,89.00
2019-02-04T07:38:15.945Z,87.40
2019-02-04T07:39:21.069Z,85.90
2019-02-04T07:40:28.257Z,84.90
2019-02-04T07:41:33.426Z,84.50
2019-02-04T07:42:38.534Z,84.00
2019-02-04T07:43:43.649Z,81.60
2019-02-04T07:44:48.764Z,79.30
2019-02-04T07:45:53.881Z,77.60
2019-02-04T07:46:58.922Z,74.50
2019-02-04T07:48:04.443Z,71.40
2019-02-04T07:49:09.481Z,69.10
2019-02-04T07:50:14.594Z,68.00
2019-02-04T07:51:19.712Z,65.60
2019-02-04T07:52:24.881Z,63.40
2019-02-04T07:53:29.987Z,62.20
2019-02-04T07:54:35.026Z,60.10
2019-02-04T07:55:40.171Z,58.40
2019-02-04T07:56:45.529Z,56.20
2019-02-04T07:57:51.016Z,54.20
2019-02-04T07:58:56.056Z,53.30
2019-02-04T08:00:01.175Z,52.70
2019-02-04T08:01:06.441Z,51.40
2019-02-04T08:02:11.572Z,50.50
2019-02-04T08:03:16.693Z,49.80
2019-02-04T08:04:21.807Z,49.20
2019-02-04T08:05:26.964Z,48.60
2019-02-04T08:06:32.067Z,48.10
2019-02-04T08:07:37.177Z,46.30
2019-02-04T08:08:42.435Z,45.40
2019-02-04T08:09:47.505Z,46.30
2019-02-04T08:10:52.694Z,45.80
2019-02-04T08:11:57.737Z,44.30
2019-02-04T08:13:02.842Z,44.10
2019-02-04T08:14:08.201Z,42.70
2019-02-04T08:15:16.405Z,42.20
2019-02-04T08:16:21.445Z,41.50
2019-02-04T08:17:26.581Z,41.30
2019-02-04T08:18:32.093Z,40.20
2019-02-04T08:19:46.688Z,39.90
2019-02-04T08:20:44.009Z,39.30
2019-02-04T08:21:49.155Z,38.70
2019-02-04T08:22:54.253Z,38.00
2019-02-04T08:23:59.271Z,36.80
2019-02-04T08:25:04.805Z,36.00
2019-02-04T08:26:09.852Z,35.80
2019-02-04T08:27:14.892Z,35.50
2019-02-04T08:28:20.012Z,34.00
2019-02-04T08:29:25.141Z,34.10
2019-02-04T08:30:32.476Z,34.30
2019-02-04T08:31:37.649Z,34.10
2019-02-04T08:32:42.834Z,33.30
2019-02-04T08:33:47.954Z,32.50
2019-02-04T08:34:53.110Z,33.60
2019-02-04T08:35:58.229Z,33.20
2019-02-04T08:37:03.337Z,33.40
2019-02-04T08:38:08.361Z,33.30
2019-02-04T08:39:14.888Z,33.30
2019-02-04T08:40:20.601Z,33.20
2019-02-04T08:41:25.796Z,32.50
2019-02-04T08:42:31.032Z,32.00
2019-02-04T08:43:36.264Z,31.10
2019-02-04T08:44:41.420Z,31.00
2019-02-04T08:45:46.464Z,31.10
2019-02-04T08:46:51.602Z,31.50
2019-02-04T08:47:56.644Z,31.80
2019-02-04T08:49:02.861Z,31.40
2019-02-04T08:50:09.734Z,31.50
2019-02-04T08:51:14.977Z,31.60
2019-02-04T08:52:20.113Z,31.40
2019-02-04T08:53:25.264Z,31.30
2019-02-04T08:54:30.456Z,31.20
2019-02-04T08:55:37.017Z,31.40
2019-02-04T08:56:43.085Z,31.30
2019-02-04T08:57:48.285Z,30.90
2019-02-04T08:58:53.410Z,30.70
2019-02-04T08:59:58.849Z,30.70
2019-02-04T09:01:04.389Z,30.90
2019-02-04T09:02:09.522Z,30.50
2019-02-04T09:03:14.652Z,30.40
2019-02-04T09:04:19.769Z,31.00
2019-02-04T09:05:25.541Z,30.80
2019-02-04T09:06:30.741Z,30.90
2019-02-04T09:07:35.804Z,30.70
2019-02-04T09:08:40.950Z,30.70
2019-02-04T09:09:46.051Z,30.00
2019-02-04T09:10:51.164Z,29.80
2019-02-04T09:11:56.277Z,29.90
2019-02-04T09:13:01.961Z,30.30
2019-02-04T09:14:07.496Z,30.60
2019-02-04T09:15:16.105Z,30.70
2019-02-04T09:16:20.079Z,30.80
2019-02-04T09:17:25.228Z,31.00
2019-02-04T09:18:30.508Z,30.50
2019-02-04T09:19:35.928Z,30.00
2019-02-04T09:20:41.238Z,30.00
2019-02-04T09:21:46.348Z,29.90
2019-02-04T09:22:51.415Z,30.00
2019-02-04T09:23:56.705Z,30.00
2019-02-04T09:25:01.763Z,29.80
2019-02-04T09:26:07.014Z,29.70
2019-02-04T09:27:12.138Z,29.10
2019-02-04T09:28:17.183Z,29.10
2019-02-04T09:29:22.272Z,29.00
2019-02-04T09:30:28.286Z,29.20
2019-02-04T09:31:33.541Z,29.00
2019-02-04T09:32:38.657Z,29.00
2019-02-04T09:33:43.779Z,29.10
2019-02-04T09:34:48.853Z,29.00
2019-02-04T09:35:54.022Z,28.80
2019-02-04T09:36:59.130Z,28.80
2019-02-04T09:38:04.208Z,28.90
2019-02-04T09:39:10.925Z,29.30
2019-02-04T09:40:28.697Z,29.50
2019-02-04T09:41:33.815Z,29.40
2019-02-04T09:42:39.014Z,29.10
2019-02-04T09:43:44.545Z,29.40
2019-02-04T09:44:49.896Z,29.00
2019-02-04T09:45:55.008Z,29.30
2019-02-04T09:47:00.212Z,29.20
2019-02-04T09:48:07.109Z,29.80
2019-02-04T09:49:12.287Z,30.00
2019-02-04T09:50:21.918Z,29.80
2019-02-04T09:51:25.531Z,29.70
2019-02-04T09:52:30.734Z,29.80
2019-02-04T09:53:35.834Z,29.90
2019-02-04T09:54:40.963Z,30.00
2019-02-04T09:55:46.109Z,30.40
2019-02-04T09:56:51.242Z,31.10
2019-02-04T09:57:56.346Z,31.60
2019-02-04T09:59:01.464Z,31.70
2019-02-04T10:00:07.303Z,31.40
2019-02-04T10:01:13.485Z,30.70
2019-02-04T10:02:18.586Z,31.00
2019-02-04T10:03:23.697Z,31.40
2019-02-04T10:04:28.815Z,31.20
2019-02-04T10:05:34.313Z,31.90
2019-02-04T10:06:39.918Z,31.60
2019-02-04T10:07:45.375Z,31.30
2019-02-04T10:08:50.493Z,31.30
2019-02-04T10:09:55.611Z,32.30
2019-02-04T10:11:00.716Z,32.60
2019-02-04T10:12:05.916Z,32.70
2019-02-04T10:13:11.054Z,32.80
2019-02-04T10:14:16.135Z,32.80
2019-02-04T10:15:32.817Z,33.40
2019-02-04T10:16:37.996Z,33.10
2019-02-04T10:17:43.216Z,32.90
2019-02-04T10:18:48.254Z,32.30
2019-02-04T10:19:53.317Z,31.90
2019-02-04T10:20:58.526Z,31.10
2019-02-04T10:22:03.741Z,31.00
2019-02-04T10:23:09.048Z,30.60
2019-02-04T10:24:14.242Z,30.70
2019-02-04T10:25:21.681Z,31.10
2019-02-04T10:26:26.900Z,30.80
2019-02-04T10:27:32.091Z,30.90
2019-02-04T10:28:37.289Z,31.20
2019-02-04T10:29:42.364Z,30.70
2019-02-04T10:30:47.387Z,30.10
2019-02-04T10:31:52.854Z,29.90
2019-02-04T10:32:58.336Z,30.20
2019-02-04T10:34:03.421Z,30.30
2019-02-04T10:35:16.584Z,30.00
2019-02-04T10:36:16.029Z,29.50
2019-02-04T10:37:21.174Z,29.20
2019-02-04T10:38:26.299Z,29.60
2019-02-04T10:39:31.571Z,30.00
2019-02-04T10:40:36.782Z,30.30
2019-02-04T10:41:41.941Z,31.20
2019-02-04T10:42:47.175Z,32.20
2019-02-04T10:43:52.363Z,33.20
2019-02-04T10:44:57.595Z,33.80
2019-02-04T10:46:04.821Z,34.10
2019-02-04T10:47:10.956Z,34.60
2019-02-04T10:48:17.105Z,34.90
2019-02-04T10:49:22.298Z,35.10
2019-02-04T10:50:29.688Z,34.90
2019-02-04T10:51:34.898Z,35.40
2019-02-04T10:52:40.996Z,35.60
2019-02-04T10:53:46.236Z,35.70
2019-02-04T10:54:54.528Z,35.70
2019-02-04T10:55:59.964Z,35.70
2019-02-04T10:57:05.585Z,35.30
2019-02-04T10:58:12.828Z,35.80
2019-02-04T10:59:18.013Z,36.50
2019-02-04T11:00:26.173Z,37.40
2019-02-04T11:01:31.326Z,38.90
2019-02-04T11:02:36.553Z,40.10
2019-02-04T11:03:41.700Z,40.40
2019-02-04T11:04:46.852Z,40.40
2019-02-04T11:05:52.132Z,40.30
2019-02-04T11:06:57.338Z,41.10
2019-02-04T11:08:02.551Z,44.50
2019-02-04T11:09:10.020Z,43.40
2019-02-04T11:10:16.382Z,43.60
2019-02-04T11:11:22.756Z,43.50
2019-02-04T11:12:27.818Z,44.40
2019-02-04T11:13:33.984Z,45.40
2019-02-04T11:14:41.881Z,45.70
2019-02-04T11:15:48.205Z,46.00
2019-02-04T11:16:55.406Z,46.90
2019-02-04T11:18:00.804Z,47.40
2019-02-04T11:19:06.546Z,47.40
2019-02-04T11:20:18.469Z,48.00
2019-02-04T11:21:23.608Z,48.80
2019-02-04T11:22:28.803Z,49.80
2019-02-04T11:23:33.982Z,50.70
2019-02-04T11:24:39.161Z,50.70
2019-02-04T11:25:44.660Z,51.20
2019-02-04T11:26:49.861Z,50.80
2019-02-04T11:27:55.151Z,51.20
2019-02-04T11:29:00.339Z,52.20
2019-02-04T11:30:09.219Z,52.30
2019-02-04T11:31:14.284Z,52.50
2019-02-04T11:32:19.610Z,52.10
2019-02-04T11:33:24.844Z,51.90
2019-02-04T11:34:30.011Z,51.80
2019-02-04T11:35:35.076Z,52.10
2019-02-04T11:36:40.358Z,52.50
2019-02-04T11:37:45.537Z,53.30
2019-02-04T11:38:50.845Z,53.90
2019-02-04T11:39:56.076Z,52.80
2019-02-04T11:41:01.179Z,52.90
2019-02-04T11:42:06.393Z,52.70
2019-02-04T11:43:11.728Z,52.90
2019-02-04T11:44:16.737Z,52.60
2019-02-04T11:45:21.906Z,52.20
2019-02-04T11:46:27.328Z,52.10
2019-02-04T11:47:32.839Z,52.80
2019-02-04T11:48:38.425Z,54.20
2019-02-04T11:49:43.591Z,54.90
2019-02-04T11:50:48.613Z,54.40
2019-02-04T11:51:53.997Z,54.00
2019-02-04T11:52:59.133Z,53.30
2019-02-04T11:54:04.297Z,52.70
2019-02-04T11:55:10.200Z,52.90
2019-02-04T11:56:15.325Z,53.60
2019-02-04T11:57:20.437Z,53.10
2019-02-04T11:58:25.525Z,52.80
2019-02-04T11:59:30.676Z,52.50
2019-02-04T12:00:36.206Z,52.40
2019-02-04T12:01:41.397Z,52.30
2019-02-04T12:02:46.517Z,52.30
2019-02-04T12:03:51.688Z,52.50
2019-02-04T12:04:56.803Z,52.40
2019-02-04T12:06:01.988Z,52.30
2019-02-04T12:07:07.092Z,52.00
2019-02-04T12:08:13.765Z,51.80
2019-02-04T12:09:19.281Z,51.30
2019-02-04T12:10:36.399Z,51.40
2019-02-04T12:11:41.527Z,51.10
2019-02-04T12:12:47.005Z,51.00
2019-02-04T12:13:52.602Z,51.00
2019-02-04T12:14:58.827Z,50.70
2019-02-04T12:16:04.014Z,50.90
2019-02-04T12:17:09.144Z,50.10
2019-02-04T12:18:14.197Z,49.50
2019-02-04T12:19:19.362Z,50.10
2019-02-04T12:20:24.484Z,49.10
2019-02-04T12:21:29.637Z,48.30
2019-02-04T12:22:34.860Z,48.50
2019-02-04T12:23:39.993Z,48.30
2019-02-04T12:24:45.120Z,48.80
2019-02-04T12:25:50.175Z,48.80
2019-02-04T12:26:55.277Z,48.10
2019-02-04T12:28:00.303Z,47.70
2019-02-04T12:29:05.656Z,49.10
2019-02-04T12:30:23.869Z,49.00
2019-02-04T12:31:29.135Z,48.80
2019-02-04T12:32:34.278Z,48.30
2019-02-04T12:33:39.321Z,48.40
2019-02-04T12:34:44.412Z,48.20
2019-02-04T12:35:49.477Z,48.00
2019-02-04T12:36:54.890Z,48.10
2019-02-04T12:38:00.423Z,48.50
2019-02-04T12:39:16.609Z,49.10
2019-02-04T12:40:22.018Z,49.70
2019-02-04T12:41:27.510Z,50.70
2019-02-04T12:42:32.598Z,51.40
2019-02-04T12:43:37.829Z,51.40
2019-02-04T12:44:42.865Z,51.60
2019-02-04T12:45:47.984Z,52.20
2019-02-04T12:46:53.080Z,53.40
2019-02-04T12:48:00.676Z,51.80
2019-02-04T12:49:05.108Z,51.10
2019-02-04T12:50:10.421Z,50.30
2019-02-04T12:51:15.930Z,49.80
2019-02-04T12:52:21.125Z,49.80
2019-02-04T12:53:26.213Z,49.70
2019-02-04T12:54:31.344Z,51.30
2019-02-04T12:55:36.463Z,50.60
2019-02-04T12:56:41.649Z,50.40
2019-02-04T12:57:47.112Z,50.40
2019-02-04T12:58:55.684Z,50.20
2019-02-04T12:59:58.984Z,48.80
2019-02-04T13:01:06.309Z,48.80
2019-02-04T13:02:11.350Z,49.00
2019-02-04T13:03:16.659Z,49.90
2019-02-04T13:04:22.185Z,49.90
2019-02-04T13:05:34.216Z,50.70
2019-02-04T13:06:39.721Z,50.90
2019-02-04T13:07:44.890Z,52.00
2019-02-04T13:08:51.145Z,52.10
2019-02-04T13:09:56.281Z,53.50
2019-02-04T13:11:01.359Z,52.20
2019-02-04T13:12:09.083Z,51.30
2019-02-04T13:13:18.326Z,51.30
2019-02-04T13:14:23.425Z,51.10
2019-02-04T13:15:28.454Z,50.70
2019-02-04T13:16:33.501Z,51.20
2019-02-04T13:17:38.557Z,51.20
2019-02-04T13:18:43.712Z,51.30
2019-02-04T13:19:48.805Z,51.20
2019-02-04T13:20:53.903Z,51.80
2019-02-04T13:21:59.070Z,51.20
2019-02-04T13:23:04.499Z,51.20
2019-02-04T13:24:09.597Z,51.50
2019-02-04T13:25:17.978Z,51.50
2019-02-04T13:26:23.109Z,51.60
2019-02-04T13:27:47.265Z,51.60
2019-02-04T13:29:04.562Z,51.60
2019-02-04T13:30:21.636Z,52.30
2019-02-04T13:31:39.032Z,52.90
2019-02-04T13:32:55.585Z,52.40
2019-02-04T13:34:12.537Z,52.40
2019-02-04T13:35:31.026Z,52.40
2019-02-04T13:36:47.701Z,53.20
2019-02-04T13:38:04.532Z,53.80
2019-02-04T13:39:21.070Z,52.70
2019-02-04T13:40:37.581Z,51.60
2019-02-04T13:41:54.294Z,50.50
2019-02-04T13:43:11.554Z,50.30
2019-02-04T13:44:27.892Z,50.70
2019-02-04T13:45:44.571Z,51.40
2019-02-04T13:47:01.673Z,52.50
2019-02-04T13:48:18.128Z,53.70
2019-02-04T13:49:34.520Z,53.70
2019-02-04T13:50:50.779Z,54.40
2019-02-04T13:52:07.733Z,53.90
2019-02-04T13:53:26.936Z,52.60
2019-02-04T13:54:42.511Z,52.70
2019-02-04T13:55:59.762Z,51.80
2019-02-04T13:57:16.421Z,51.90
2019-02-04T13:58:32.738Z,51.50
2019-02-04T13:59:49.601Z,51.60
2019-02-04T14:01:06.141Z,51.70
2019-02-04T14:02:22.631Z,52.10
2019-02-04T14:03:39.862Z,52.80
2019-02-04T14:04:56.624Z,51.50
2019-02-04T14:07:29.057Z,50.40
2019-02-04T14:08:46.294Z,49.50
2019-02-04T14:10:02.602Z,49.20
2019-02-04T14:11:19.625Z,49.10
2019-02-04T14:12:36.002Z,49.10
2019-02-04T14:13:52.960Z,48.50
2019-02-04T14:15:10.621Z,48.00
2019-02-04T14:16:27.030Z,47.40
2019-02-04T14:17:44.080Z,47.80
2019-02-04T14:19:00.690Z,48.00
2019-02-04T14:20:18.958Z,47.90
2019-02-04T14:21:35.238Z,46.80
2019-02-04T14:22:53.391Z,46.40
2019-02-04T14:24:10.489Z,46.10
2019-02-04T14:25:27.710Z,47.30
2019-02-04T14:26:44.857Z,48.20
2019-02-04T14:28:03.642Z,48.00
2019-02-04T14:29:20.653Z,47.70
2019-02-04T14:30:37.425Z,47.60
2019-02-04T14:31:53.817Z,47.90
2019-02-04T14:33:10.272Z,47.90
2019-02-04T14:34:26.719Z,48.10
2019-02-04T14:35:44.861Z,48.80
2019-02-04T14:37:01.595Z,49.20
2019-02-04T14:38:18.054Z,49.30
2019-02-04T14:39:34.993Z,49.60
2019-02-04T14:40:52.157Z,49.70
2019-02-04T14:42:08.510Z,49.50
2019-02-04T14:43:25.096Z,50.10
2019-02-04T14:44:41.604Z,51.00
2019-02-04T14:45:58.070Z,51.50
2019-02-04T14:47:14.456Z,50.80
2019-02-04T14:48:31.734Z,50.20
2019-02-04T14:49:48.288Z,50.20
2019-02-04T14:51:05.115Z,50.40
2019-02-04T14:52:22.330Z,50.70
2019-02-04T14:53:38.681Z,50.50
2019-02-04T14:54:55.060Z,50.70
2019-02-04T14:56:11.449Z,51.10
2019-02-04T14:57:28.767Z,50.60
2019-02-04T14:58:45.457Z,50.00
2019-02-04T15:00:01.862Z,49.40
2019-02-04T15:01:20.497Z,49.20
2019-02-04T15:02:36.961Z,49.20
2019-02-04T15:03:53.686Z,49.00
2019-02-04T15:05:10.855Z,48.30
2019-02-04T15:06:28.075Z,48.50
2019-02-04T15:07:44.587Z,48.30
2019-02-04T15:09:00.893Z,49.00
2019-02-04T15:10:21.637Z,49.60
2019-02-04T15:11:38.436Z,50.20
2019-02-04T15:12:54.718Z,49.80
2019-02-04T15:14:11.254Z,49.50
2019-02-04T15:15:28.131Z,49.30
2019-02-04T15:17:02.556Z,49.40
2019-02-04T15:18:45.721Z,49.40
2019-02-04T15:20:02.240Z,50.00
2019-02-04T15:21:18.809Z,50.50
2019-02-04T15:22:35.507Z,50.50
2019-02-04T15:23:52.788Z,51.00
2019-02-04T15:25:09.149Z,51.00
2019-02-04T15:26:26.090Z,51.70
2019-02-04T15:27:42.890Z,51.40
2019-02-04T15:28:59.119Z,51.20
2019-02-04T15:30:15.567Z,51.10
2019-02-04T15:31:32.354Z,51.10
2019-02-04T15:32:48.916Z,51.20
2019-02-04T15:34:06.036Z,51.30
2019-02-04T15:35:22.717Z,51.40